Weather reports worldwide

Advertisment
Gogerddan, United Kingdom (99150): temperature & dewpoint: 15.10.2017 06:00:00 - 21.10.2017 06:00:00 (BST)Gogerddan, United Kingdom (99150): temperature -20cm & temperature -100cm: 15.10.2017 06:00:00 - 21.10.2017 06:00:00 (BST)Gogerddan, United Kingdom (99150): precipitation: 15.10.2017 06:00:00 - 21.10.2017 06:00:00 (BST)
Date & Time tt [°C] td [°C] tt -20cm [°C] tt -100cm [°C] rr [mm]
21.10.2017 06:00:00 - - - - -
21.10.2017 05:00:00 - - - - -
21.10.2017 04:00:00 - - - - -
21.10.2017 03:00:00 - - - - -
21.10.2017 02:00:00 - - - - -
21.10.2017 01:00:00 - - - - -
21.10.2017 00:00:00 - - - - -
20.10.2017 23:00:00 - - - - -
20.10.2017 22:00:00 - - - - -
20.10.2017 21:00:00 - - - - 0,0
20.10.2017 20:00:00 12,1 9,4 - - 1,2
20.10.2017 19:00:00 12,8 8,4 - - 0,0
20.10.2017 18:00:00 12,1 7,6 - - 0,0
20.10.2017 17:00:00 11,6 7,1 - - 0,0
20.10.2017 16:00:00 11,7 6,8 - - 0,0
20.10.2017 15:00:00 12,0 6,8 - - 0,0
20.10.2017 14:00:00 11,8 6,4 - - 0,0
20.10.2017 13:00:00 11,7 7,9 - - 0,0
20.10.2017 12:00:00 11,5 8,7 - - 0,0
20.10.2017 11:00:00 11,4 8,8 - - 0,0
20.10.2017 10:00:00 10,5 9,6 13,4 13,7 0,4
20.10.2017 09:00:00 10,5 9,9 - - 1,0
20.10.2017 08:00:00 11,1 10,2 - - 0,4
20.10.2017 07:00:00 11,4 10,9 - - 0,8
20.10.2017 06:00:00 11,9 11,2 - - 0,8
20.10.2017 05:00:00 13,0 12,3 - - 0,2
20.10.2017 04:00:00 11,8 11,3 - - 0,2
20.10.2017 03:00:00 11,5 11,0 - - 0,0
20.10.2017 02:00:00 11,5 10,9 - - 0,6
20.10.2017 01:00:00 11,8 10,5 - - 0,8
20.10.2017 00:00:00 13,0 9,8 - - 0,2
19.10.2017 23:00:00 13,3 10,0 - - 0,0
19.10.2017 22:00:00 14,0 10,8 - - 0,0
19.10.2017 21:00:00 14,6 11,3 - - 0,0
19.10.2017 20:00:00 14,1 10,9 - - 0,0
19.10.2017 19:00:00 14,3 10,3 - - 0,0
19.10.2017 18:00:00 14,2 10,5 - - 0,4
19.10.2017 17:00:00 14,2 10,3 - - 0,8
19.10.2017 16:00:00 15,6 10,8 - - 0,0
19.10.2017 15:00:00 15,5 11,5 - - 0,0
19.10.2017 14:00:00 15,1 11,1 - - 0,0
19.10.2017 13:00:00 14,6 10,4 - - 0,0
19.10.2017 12:00:00 14,2 10,3 - - 0,0
19.10.2017 11:00:00 14,0 9,8 - - 0,0
19.10.2017 10:00:00 13,8 9,8 13,2 13,7 0,0
19.10.2017 09:00:00 13,3 10,0 - - 0,0
19.10.2017 08:00:00 13,5 10,1 - - 0,0
19.10.2017 07:00:00 13,6 10,5 - - 0,0
19.10.2017 06:00:00 13,5 10,4 - - 0,0
19.10.2017 05:00:00 13,4 10,8 - - 0,0
19.10.2017 04:00:00 13,3 10,5 - - 0,0
19.10.2017 03:00:00 13,0 10,6 - - 0,0
19.10.2017 02:00:00 13,1 10,3 - - 0,0
19.10.2017 01:00:00 12,9 10,1 - - 0,0
19.10.2017 00:00:00 12,1 9,9 - - 0,0
18.10.2017 23:00:00 10,7 8,7 - - 0,0
18.10.2017 22:00:00 12,3 9,5 - - 0,0
18.10.2017 21:00:00 12,6 9,9 - - 0,0
18.10.2017 20:00:00 12,4 10,1 - - 0,0
18.10.2017 19:00:00 12,2 9,9 - - 0,0
18.10.2017 18:00:00 12,9 10,3 - - 0,0
18.10.2017 17:00:00 13,3 10,2 - - 0,0
18.10.2017 16:00:00 13,4 10,5 - - 0,0
18.10.2017 15:00:00 12,5 9,9 - - 0,0
18.10.2017 14:00:00 12,3 9,8 - - 0,0
18.10.2017 13:00:00 12,8 9,0 - - 0,0
18.10.2017 12:00:00 12,6 8,2 - - 0,0
18.10.2017 11:00:00 12,3 8,5 - - 0,0
18.10.2017 10:00:00 10,1 8,4 13,5 13,7 0,0
18.10.2017 09:00:00 6,9 6,7 - - 0,2
18.10.2017 08:00:00 3,6 3,3 - - 0,0
18.10.2017 07:00:00 3,1 2,7 - - 0,0
18.10.2017 06:00:00 3,5 3,1 - - 0,0
18.10.2017 05:00:00 3,2 2,8 - - 0,0
18.10.2017 04:00:00 2,7 2,2 - - 0,0
18.10.2017 03:00:00 3,4 2,9 - - 0,0
18.10.2017 02:00:00 3,5 2,7 - - 0,0
18.10.2017 01:00:00 5,2 4,7 - - 0,0
18.10.2017 00:00:00 6,0 5,2 - - 0,0
17.10.2017 23:00:00 7,2 6,2 - - 0,0
17.10.2017 22:00:00 8,0 6,9 - - 0,0
17.10.2017 21:00:00 8,6 6,9 - - 0,0
17.10.2017 20:00:00 9,6 7,1 - - 0,0
17.10.2017 19:00:00 10,5 7,5 - - 0,0
17.10.2017 18:00:00 12,0 7,2 - - 0,0
17.10.2017 17:00:00 12,7 6,9 - - 0,0
17.10.2017 16:00:00 13,3 7,1 - - 0,0
17.10.2017 15:00:00 14,0 6,8 - - 0,0
17.10.2017 14:00:00 14,2 7,4 - - 0,0
17.10.2017 13:00:00 14,4 7,8 - - 0,0
17.10.2017 12:00:00 13,3 6,6 - - 0,0
17.10.2017 11:00:00 13,1 7,0 - - 0,0
17.10.2017 10:00:00 13,1 7,5 14,0 13,9 0,0
17.10.2017 09:00:00 12,3 6,9 - - 0,0
17.10.2017 08:00:00 12,2 7,5 - - 0,0
17.10.2017 07:00:00 12,7 6,9 - - 0,0
17.10.2017 06:00:00 12,6 8,2 - - 0,0
17.10.2017 05:00:00 12,8 8,2 - - 0,0
17.10.2017 04:00:00 12,7 8,2 - - 0,0
17.10.2017 03:00:00 12,6 8,7 - - 0,0
17.10.2017 02:00:00 13,1 8,1 - - 0,0
17.10.2017 01:00:00 13,1 8,1 - - 0,0
17.10.2017 00:00:00 13,0 8,3 - - 0,0
16.10.2017 23:00:00 13,3 8,0 - - 0,0
16.10.2017 22:00:00 13,5 7,4 - - 0,0
16.10.2017 21:00:00 13,4 7,9 - - 0,0
16.10.2017 20:00:00 13,6 8,2 - - 0,0
16.10.2017 19:00:00 13,7 8,6 - - 0,0
16.10.2017 18:00:00 13,8 8,8 - - 0,0
16.10.2017 17:00:00 14,7 8,0 - - 0,0
16.10.2017 16:00:00 16,0 8,1 - - 0,0
16.10.2017 15:00:00 16,5 9,1 - - 0,0
16.10.2017 14:00:00 17,0 8,7 - - 0,0
16.10.2017 13:00:00 17,3 10,7 - - 0,0
16.10.2017 12:00:00 19,5 11,4 - - 0,0
16.10.2017 11:00:00 19,7 14,1 - - 0,0
16.10.2017 10:00:00 20,6 13,6 14,2 13,7 0,0
16.10.2017 09:00:00 21,7 12,0 - - 0,0
16.10.2017 08:00:00 22,8 11,3 - - 0,0
16.10.2017 07:00:00 20,7 12,1 - - 0,0
16.10.2017 06:00:00 19,7 12,7 - - 0,0
16.10.2017 05:00:00 16,8 13,5 - - 0,0
16.10.2017 04:00:00 15,0 13,2 - - 0,0
16.10.2017 03:00:00 15,0 13,3 - - 0,0
16.10.2017 02:00:00 16,0 13,4 - - 0,0
16.10.2017 01:00:00 16,0 13,2 - - 0,0
16.10.2017 00:00:00 15,7 12,9 - - 0,0
15.10.2017 23:00:00 16,0 12,7 - - 0,0
15.10.2017 22:00:00 15,5 12,6 - - 0,0
15.10.2017 21:00:00 15,7 12,4 - - 0,0
15.10.2017 20:00:00 15,4 12,5 - - 0,0
15.10.2017 19:00:00 15,2 12,0 - - 0,0
15.10.2017 18:00:00 15,2 11,7 - - 0,0
15.10.2017 17:00:00 15,3 11,8 - - 0,0
15.10.2017 16:00:00 15,3 12,1 - - 0,0
15.10.2017 15:00:00 15,5 11,9 - - 0,0
15.10.2017 14:00:00 15,2 12,0 - - 0,0
15.10.2017 13:00:00 15,2 11,9 - - 0,0
15.10.2017 12:00:00 15,0 12,0 - - 0,0
15.10.2017 11:00:00 14,7 11,8 - - 0,0
15.10.2017 10:00:00 14,8 11,8 14,2 13,7 0,0
15.10.2017 09:00:00 14,7 12,1 - - 0,0
15.10.2017 08:00:00 14,9 12,6 - - 0,0
15.10.2017 07:00:00 15,7 13,4 - - 0,0
15.10.2017 06:00:00 15,6 13,7 - - 0,0

tt = temperature
td = dewpoint
tt -20cm = temperature -20cm
tt -100cm = temperature -100cm
rr = precipitation

Next stations